Weather at Jomo Kenyatta International Airport

Public forecast

Using degrees Celsius for public forecast. Weather courtesy of forecast.io.

Current aviation weather report (METAR) for Jomo Kenyatta International Airport

Retrieved 2022/01/17 08:30 UTC (1 hour ago):

HKJK 170830Z 25007KT 9999 BKN025 23/15 Q1022 NOSIG

Aviation forecast (TAF) for Jomo Kenyatta International Airport

Retrieved 2022/01/17 06:54 UTC (3 hours ago):

TAF HKJK 170500Z 1706/1812 24005KT 9999 BKN025 PROB40 TEMPO 1712/1716 -SHRA FEW023CB SCT024 BKN080 BECMG 1720/1723 03005KT NSW BKN016 BECMG 1806/1810 BKN025